createdAt,value
2022-09-21T00:01:32.076Z,1.42
2022-09-21T00:04:03.068Z,1.77
2022-09-21T00:06:34.469Z,1.48
2022-09-21T00:09:03.914Z,1.50
2022-09-21T00:11:35.413Z,1.98
2022-09-21T00:14:14.144Z,1.40
2022-09-21T00:16:43.559Z,1.20
2022-09-21T00:19:11.989Z,1.60
2022-09-21T00:21:39.662Z,1.67
2022-09-21T00:24:07.805Z,1.50
2022-09-21T00:26:35.122Z,1.67
2022-09-21T00:29:03.927Z,1.67
2022-09-21T00:31:31.928Z,1.48
2022-09-21T00:34:00.571Z,1.73
2022-09-21T00:36:28.682Z,1.50
2022-09-21T00:39:00.880Z,1.27
2022-09-21T00:41:32.296Z,1.90
2022-09-21T00:44:32.724Z,1.10
2022-09-21T00:47:11.896Z,2.15
2022-09-21T00:49:41.554Z,2.70
2022-09-21T00:52:14.801Z,2.15
2022-09-21T00:54:52.394Z,2.08
2022-09-21T00:57:23.346Z,1.90
2022-09-21T00:59:55.098Z,2.43
2022-09-21T01:02:22.962Z,2.00
2022-09-21T01:04:54.040Z,2.20
2022-09-21T01:07:29.618Z,1.60
2022-09-21T01:10:02.617Z,1.75
2022-09-21T01:12:59.568Z,1.40
2022-09-21T01:15:41.895Z,1.30
2022-09-21T01:18:24.232Z,1.40
2022-09-21T01:21:11.147Z,1.70
2022-09-21T01:24:02.840Z,1.33
2022-09-21T01:27:04.579Z,1.17
2022-09-21T01:29:47.726Z,1.40
2022-09-21T01:32:42.115Z,1.30
2022-09-21T01:35:38.011Z,1.60
2022-09-21T01:38:15.812Z,1.40
2022-09-21T01:40:56.075Z,1.70
2022-09-21T01:43:31.782Z,1.20
2022-09-21T01:46:03.388Z,1.30
2022-09-21T01:48:39.699Z,1.33
2022-09-21T01:51:12.419Z,1.30
2022-09-21T01:53:49.034Z,1.27
2022-09-21T01:56:25.477Z,1.20
2022-09-21T01:59:27.627Z,1.17
2022-09-21T02:02:12.878Z,1.20
2022-09-21T02:04:39.798Z,1.10
2022-09-21T02:07:08.236Z,1.20
2022-09-21T02:09:37.375Z,1.20
2022-09-21T02:12:05.785Z,1.43
2022-09-21T02:14:43.379Z,1.40
2022-09-21T02:17:25.417Z,1.07
2022-09-21T02:20:13.071Z,1.50
2022-09-21T02:23:22.104Z,1.20
2022-09-21T02:26:03.856Z,1.10
2022-09-21T02:28:47.521Z,1.90
2022-09-21T02:31:21.627Z,1.30
2022-09-21T02:34:28.932Z,1.17
2022-09-21T02:37:05.014Z,1.10
2022-09-21T02:39:44.788Z,1.20
2022-09-21T02:42:29.711Z,1.03
2022-09-21T02:45:11.323Z,1.00
2022-09-21T02:47:59.464Z,1.50
2022-09-21T02:50:39.068Z,1.10
2022-09-21T02:53:08.841Z,1.13
2022-09-21T02:55:37.276Z,1.03
2022-09-21T02:58:11.437Z,1.20
2022-09-21T03:00:38.737Z,1.00
2022-09-21T03:03:22.017Z,1.30
2022-09-21T03:05:52.928Z,1.13
2022-09-21T03:08:20.093Z,1.10
2022-09-21T03:10:49.964Z,1.30
2022-09-21T03:13:18.297Z,1.00
2022-09-21T03:15:47.223Z,1.10
2022-09-21T03:18:15.067Z,1.07
2022-09-21T03:20:46.062Z,1.57
2022-09-21T03:23:14.103Z,1.37
2022-09-21T03:25:44.793Z,1.10
2022-09-21T03:28:13.397Z,1.00
2022-09-21T03:30:40.447Z,1.40
2022-09-21T03:33:08.228Z,1.20
2022-09-21T03:35:35.410Z,1.30
2022-09-21T03:38:02.519Z,1.60
2022-09-21T03:40:29.414Z,1.30
2022-09-21T03:42:56.336Z,1.50
2022-09-21T03:45:23.590Z,1.60
2022-09-21T03:47:50.483Z,1.60
2022-09-21T03:50:17.536Z,1.60
2022-09-21T03:52:44.249Z,1.70
2022-09-21T03:55:11.039Z,1.60
2022-09-21T03:57:38.419Z,1.57
2022-09-21T04:00:10.569Z,1.43
2022-09-21T04:02:40.465Z,1.47
2022-09-21T04:05:17.822Z,1.10
2022-09-21T04:07:48.576Z,1.20
2022-09-21T04:10:19.889Z,1.83
2022-09-21T04:12:48.034Z,1.10
2022-09-21T04:15:21.953Z,1.50
2022-09-21T04:17:52.038Z,1.23
2022-09-21T04:20:19.721Z,1.30
2022-09-21T04:22:47.444Z,1.27
2022-09-21T04:25:15.633Z,1.20
2022-09-21T04:27:42.800Z,1.33
2022-09-21T04:30:13.192Z,1.20
2022-09-21T04:32:40.348Z,1.10
2022-09-21T04:35:08.000Z,1.30
2022-09-21T04:37:35.075Z,1.20
2022-09-21T04:40:04.214Z,1.37
2022-09-21T04:42:31.250Z,1.30
2022-09-21T04:44:57.957Z,1.40
2022-09-21T04:47:25.201Z,1.13
2022-09-21T04:49:53.333Z,1.50
2022-09-21T04:52:20.152Z,1.20
2022-09-21T04:54:47.975Z,1.30
2022-09-21T04:57:15.291Z,0.97
2022-09-21T04:59:42.042Z,1.60
2022-09-21T05:02:10.034Z,1.30
2022-09-21T05:04:37.044Z,1.33
2022-09-21T05:07:04.047Z,1.30
2022-09-21T05:09:49.104Z,1.60
2022-09-21T05:12:15.841Z,1.40
2022-09-21T05:14:44.408Z,1.50
2022-09-21T05:17:12.521Z,1.30
2022-09-21T05:19:39.909Z,1.03
2022-09-21T05:22:06.779Z,1.43
2022-09-21T05:24:33.534Z,1.27
2022-09-21T05:27:03.879Z,1.23
2022-09-21T05:29:31.011Z,1.20
2022-09-21T05:32:27.090Z,1.33
2022-09-21T05:35:06.489Z,1.43
2022-09-21T05:38:01.215Z,1.53
2022-09-21T05:40:29.836Z,1.10
2022-09-21T05:42:57.127Z,1.60
2022-09-21T05:45:24.517Z,1.47
2022-09-21T05:48:15.948Z,1.37
2022-09-21T05:51:06.908Z,3.37
2022-09-21T05:53:50.449Z,2.20
2022-09-21T05:56:54.900Z,1.67
2022-09-21T05:59:55.024Z,1.47
2022-09-21T06:03:13.225Z,1.40
2022-09-21T06:05:44.168Z,1.80
2022-09-21T06:08:10.894Z,1.27
2022-09-21T06:10:37.600Z,1.90
2022-09-21T06:13:04.423Z,1.80
2022-09-21T06:15:31.248Z,1.77
2022-09-21T06:17:59.388Z,1.60
2022-09-21T06:20:27.448Z,1.43
2022-09-21T06:23:04.471Z,1.40
2022-09-21T06:25:31.417Z,1.53
2022-09-21T06:28:14.729Z,1.20
2022-09-21T06:30:42.815Z,1.63
2022-09-21T06:33:09.933Z,1.17
2022-09-21T06:35:37.504Z,1.30
2022-09-21T06:38:11.360Z,1.37
2022-09-21T06:40:38.133Z,1.50
2022-09-21T06:43:06.293Z,2.07
2022-09-21T06:45:36.353Z,1.77
2022-09-21T06:48:06.243Z,1.87
2022-09-21T06:50:33.412Z,2.30
2022-09-21T06:53:01.308Z,1.30
2022-09-21T06:55:31.900Z,1.67
2022-09-21T06:58:05.323Z,1.50
2022-09-21T07:00:33.543Z,1.80
2022-09-21T07:03:10.947Z,1.30
2022-09-21T07:05:40.260Z,1.40
2022-09-21T07:10:04.789Z,1.73
2022-09-21T07:11:02.796Z,1.27
2022-09-21T07:13:30.042Z,1.53
2022-09-21T07:15:56.851Z,1.60
2022-09-21T07:18:29.896Z,1.67
2022-09-21T07:20:56.899Z,2.50
2022-09-21T07:23:26.160Z,1.60
2022-09-21T07:25:53.087Z,1.20
2022-09-21T07:28:20.054Z,1.73
2022-09-21T07:30:46.809Z,1.60
2022-09-21T07:33:13.617Z,1.90
2022-09-21T07:35:40.340Z,1.27
2022-09-21T07:38:08.445Z,1.40
2022-09-21T07:40:37.739Z,1.10
2022-09-21T07:43:05.023Z,1.07
2022-09-21T07:45:31.856Z,1.20
2022-09-21T07:48:06.709Z,1.03
2022-09-21T07:50:37.189Z,0.80
2022-09-21T07:53:04.350Z,1.10
2022-09-21T07:55:31.333Z,0.93
2022-09-21T07:58:16.587Z,2.80
2022-09-21T08:00:43.376Z,0.80
2022-09-21T08:03:10.937Z,1.00
2022-09-21T08:05:37.647Z,1.00
2022-09-21T08:08:04.390Z,0.97
2022-09-21T08:10:31.958Z,1.75
2022-09-21T08:12:58.777Z,1.00
2022-09-21T08:15:47.521Z,0.80
2022-09-21T08:18:14.224Z,0.88
2022-09-21T08:20:41.727Z,1.30
2022-09-21T08:23:08.464Z,0.88
2022-09-21T08:25:35.324Z,0.52
2022-09-21T08:28:06.099Z,0.73
2022-09-21T08:30:35.604Z,0.50
2022-09-21T08:33:03.588Z,0.50
2022-09-21T08:35:30.271Z,0.65
2022-09-21T08:37:56.951Z,0.70
2022-09-21T08:40:24.066Z,0.40
2022-09-21T08:43:10.919Z,0.55
2022-09-21T08:45:44.075Z,0.60
2022-09-21T08:48:48.899Z,1.27
2022-09-21T08:51:23.188Z,0.60
2022-09-21T08:53:57.875Z,1.23
2022-09-21T08:56:47.092Z,0.70
2022-09-21T08:59:15.708Z,0.30
2022-09-21T09:02:30.956Z,0.38
2022-09-21T09:05:07.535Z,0.45
2022-09-21T09:08:20.252Z,0.73
2022-09-21T09:11:06.314Z,0.43
2022-09-21T09:13:51.839Z,0.30
2022-09-21T09:16:59.158Z,0.40
2022-09-21T09:20:02.952Z,0.45
2022-09-21T09:22:44.292Z,0.50
2022-09-21T09:25:24.934Z,0.75
2022-09-21T09:28:01.215Z,0.98
2022-09-21T09:30:34.777Z,0.68
2022-09-21T09:33:10.415Z,0.40
2022-09-21T09:36:14.402Z,0.35
2022-09-21T09:39:12.733Z,0.50
2022-09-21T09:41:58.075Z,0.60
2022-09-21T09:44:58.658Z,0.52
2022-09-21T09:47:46.909Z,0.43
2022-09-21T09:50:31.982Z,0.38
2022-09-21T09:53:17.650Z,0.35
2022-09-21T09:55:49.495Z,0.40
2022-09-21T09:58:23.986Z,0.50
2022-09-21T10:00:57.677Z,0.40
2022-09-21T10:03:28.457Z,0.50
2022-09-21T10:05:56.363Z,0.30
2022-09-21T10:08:46.332Z,0.40
2022-09-21T10:11:16.617Z,0.30
2022-09-21T10:13:47.087Z,0.52
2022-09-21T10:16:20.374Z,0.60
2022-09-21T10:18:56.531Z,0.40
2022-09-21T10:21:46.581Z,0.40
2022-09-21T10:24:35.852Z,0.30
2022-09-21T10:27:14.295Z,0.57
2022-09-21T10:29:49.153Z,0.40
2022-09-21T10:32:18.757Z,0.25
2022-09-21T10:35:07.871Z,0.45
2022-09-21T10:37:50.785Z,0.98
2022-09-21T10:40:20.579Z,0.43
2022-09-21T10:43:00.380Z,0.40
2022-09-21T10:45:34.769Z,0.70
2022-09-21T10:48:17.030Z,0.32
2022-09-21T10:50:46.168Z,0.63
2022-09-21T10:53:23.660Z,0.35
2022-09-21T10:56:17.772Z,1.20
2022-09-21T10:59:24.649Z,0.43
2022-09-21T11:01:55.516Z,0.43
2022-09-21T11:04:28.136Z,0.40
2022-09-21T11:07:06.325Z,0.50
2022-09-21T11:09:46.913Z,0.30
2022-09-21T11:12:51.420Z,0.75
2022-09-21T11:15:56.966Z,0.50
2022-09-21T11:18:55.048Z,0.50
2022-09-21T11:21:55.685Z,0.47
2022-09-21T11:25:00.689Z,0.40
2022-09-21T11:27:36.169Z,0.35
2022-09-21T11:30:18.468Z,0.70
2022-09-21T11:33:20.122Z,0.47
2022-09-21T11:36:07.041Z,0.40
2022-09-21T11:39:06.352Z,0.35
2022-09-21T11:41:52.978Z,0.40
2022-09-21T11:44:33.898Z,0.40
2022-09-21T11:47:27.346Z,0.57
2022-09-21T11:50:30.364Z,0.50
2022-09-21T11:53:07.884Z,0.35
2022-09-21T11:56:24.455Z,0.60
2022-09-21T11:59:44.626Z,0.25
2022-09-21T12:02:22.388Z,0.50
2022-09-21T12:05:24.414Z,0.75
2022-09-21T12:08:42.272Z,0.45
2022-09-21T12:11:36.786Z,0.50
2022-09-21T12:14:39.673Z,0.52
2022-09-21T12:17:44.355Z,0.40
2022-09-21T12:20:15.767Z,0.40
2022-09-21T12:22:47.229Z,0.55
2022-09-21T12:25:48.090Z,0.50
2022-09-21T12:28:42.812Z,0.45
2022-09-21T12:31:23.299Z,0.38
2022-09-21T12:34:21.532Z,0.47
2022-09-21T12:37:13.617Z,0.40
2022-09-21T12:40:36.779Z,0.40
2022-09-21T12:43:33.893Z,0.50
2022-09-21T12:46:34.706Z,0.25
2022-09-21T12:49:19.395Z,0.50
2022-09-21T12:51:57.303Z,0.60
2022-09-21T12:55:06.001Z,1.20
2022-09-21T12:58:16.715Z,0.35
2022-09-21T13:01:31.465Z,0.22
2022-09-21T13:04:25.597Z,0.40
2022-09-21T13:07:11.210Z,0.43
2022-09-21T13:09:50.560Z,0.43
2022-09-21T13:12:39.889Z,0.22
2022-09-21T13:15:33.010Z,0.40
2022-09-21T13:18:06.732Z,0.20
2022-09-21T13:20:55.437Z,0.60
2022-09-21T13:23:42.402Z,0.30
2022-09-21T13:26:13.565Z,0.60
2022-09-21T13:29:00.757Z,0.30
2022-09-21T13:31:43.356Z,0.30
2022-09-21T13:34:42.862Z,0.40
2022-09-21T13:37:13.941Z,0.38
2022-09-21T13:40:16.203Z,0.40
2022-09-21T13:42:49.600Z,0.35
2022-09-21T13:45:18.644Z,0.50
2022-09-21T13:47:49.109Z,0.38
2022-09-21T13:50:38.045Z,0.38
2022-09-21T13:53:25.085Z,0.30
2022-09-21T13:56:09.756Z,0.40
2022-09-21T13:58:47.177Z,0.35
2022-09-21T14:01:45.853Z,0.20
2022-09-21T14:04:30.365Z,0.40
2022-09-21T14:07:02.551Z,0.50
2022-09-21T14:09:42.545Z,0.30
2022-09-21T14:12:25.145Z,0.40
2022-09-21T14:15:18.269Z,0.40
2022-09-21T14:18:07.751Z,0.30
2022-09-21T14:20:39.557Z,0.40
2022-09-21T14:23:19.210Z,0.30
2022-09-21T14:25:56.369Z,0.50
2022-09-21T14:28:54.365Z,0.40
2022-09-21T14:31:37.990Z,1.13
2022-09-21T14:34:15.987Z,0.30
2022-09-21T14:36:47.480Z,0.43
2022-09-21T14:39:31.953Z,0.50
2022-09-21T14:42:12.180Z,0.60
2022-09-21T14:44:46.008Z,0.57
2022-09-21T14:47:56.812Z,1.15
2022-09-21T14:50:49.499Z,0.75
2022-09-21T14:53:42.756Z,0.30
2022-09-21T14:56:33.171Z,0.65
2022-09-21T14:59:40.841Z,0.30
2022-09-21T15:02:23.520Z,0.30
2022-09-21T15:05:23.570Z,0.40
2022-09-21T15:08:40.392Z,0.40
2022-09-21T15:11:28.615Z,0.50
2022-09-21T15:14:35.440Z,0.40
2022-09-21T15:17:29.817Z,0.40
2022-09-21T15:20:15.014Z,0.30
2022-09-21T15:22:45.212Z,0.30
2022-09-21T15:25:13.974Z,0.65
2022-09-21T15:27:46.660Z,0.40
2022-09-21T15:30:29.244Z,0.45
2022-09-21T15:33:02.376Z,1.00
2022-09-21T15:35:33.489Z,0.43
2022-09-21T15:38:01.185Z,0.55
2022-09-21T15:40:45.918Z,0.90
2022-09-21T15:43:17.691Z,0.63
2022-09-21T15:45:57.725Z,0.57
2022-09-21T15:48:32.479Z,0.40
2022-09-21T15:51:39.562Z,0.50
2022-09-21T15:54:36.975Z,0.30
2022-09-21T15:57:25.240Z,0.40
2022-09-21T15:59:53.853Z,0.55
2022-09-21T16:02:30.025Z,0.40
2022-09-21T16:04:56.914Z,1.17
2022-09-21T16:07:32.966Z,1.48
2022-09-21T16:10:00.924Z,1.52
2022-09-21T16:12:43.806Z,1.20
2022-09-21T16:15:31.947Z,1.00
2022-09-21T16:18:06.590Z,0.88
2022-09-21T16:20:47.398Z,0.85
2022-09-21T16:23:29.528Z,1.20
2022-09-21T16:26:39.819Z,2.70
2022-09-21T16:29:27.276Z,2.22
2022-09-21T16:32:19.050Z,1.40
2022-09-21T16:34:48.228Z,0.82
2022-09-21T16:37:26.693Z,1.33
2022-09-21T16:39:58.288Z,0.60
2022-09-21T16:42:32.752Z,0.93
2022-09-21T16:45:00.867Z,2.00
2022-09-21T16:47:28.908Z,1.00
2022-09-21T16:50:02.546Z,0.90
2022-09-21T16:52:30.369Z,0.70
2022-09-21T16:54:58.453Z,1.20
2022-09-21T16:57:42.540Z,0.70
2022-09-21T17:00:13.397Z,0.57
2022-09-21T17:02:42.666Z,0.68
2022-09-21T17:05:09.980Z,0.80
2022-09-21T17:07:37.120Z,1.00
2022-09-21T17:10:14.284Z,0.95
2022-09-21T17:12:41.193Z,1.13
2022-09-21T17:15:12.519Z,1.25
2022-09-21T17:17:39.373Z,1.40
2022-09-21T17:20:20.646Z,1.48
2022-09-21T17:22:47.347Z,1.67
2022-09-21T17:25:14.428Z,1.83
2022-09-21T17:27:45.057Z,1.67
2022-09-21T17:30:15.613Z,1.60
2022-09-21T17:32:43.144Z,1.50
2022-09-21T17:35:38.669Z,2.20
2022-09-21T17:38:11.290Z,1.23
2022-09-21T17:40:42.510Z,1.48
2022-09-21T17:43:38.123Z,2.08
2022-09-21T17:46:39.552Z,1.77
2022-09-21T17:49:08.181Z,1.98
2022-09-21T17:51:54.100Z,1.95
2022-09-21T17:54:23.350Z,2.72
2022-09-21T17:57:18.302Z,2.20
2022-09-21T17:59:55.814Z,2.40
2022-09-21T18:02:35.842Z,2.63
2022-09-21T18:05:24.976Z,2.45
2022-09-21T18:07:54.871Z,2.95
2022-09-21T18:10:26.117Z,4.18
2022-09-21T18:13:17.736Z,7.28
2022-09-21T18:16:03.532Z,8.77
2022-09-21T18:19:33.368Z,10.15
2022-09-21T18:22:39.813Z,8.80
2022-09-21T18:25:26.394Z,9.80
2022-09-21T18:27:59.258Z,8.77
2022-09-21T18:30:26.699Z,10.80
2022-09-21T18:33:28.031Z,11.93
2022-09-21T18:36:16.821Z,10.05
2022-09-21T18:39:18.216Z,11.82
2022-09-21T18:42:12.055Z,27.63
2022-09-21T18:45:17.061Z,26.67
2022-09-21T18:48:13.436Z,18.17
2022-09-21T18:50:59.682Z,13.60
2022-09-21T18:53:58.726Z,8.88
2022-09-21T18:56:35.583Z,8.35
2022-09-21T18:59:03.441Z,6.70
2022-09-21T19:01:33.949Z,5.60
2022-09-21T19:04:01.743Z,5.55
2022-09-21T19:06:46.681Z,6.00
2022-09-21T19:09:36.500Z,6.18
2022-09-21T19:12:34.102Z,5.63
2022-09-21T19:15:42.038Z,5.20
2022-09-21T19:18:28.345Z,3.45
2022-09-21T19:21:27.226Z,2.95
2022-09-21T19:24:18.806Z,2.38
2022-09-21T19:27:18.157Z,2.95
2022-09-21T19:30:13.459Z,2.85
2022-09-21T19:32:59.515Z,2.75
2022-09-21T19:35:32.376Z,3.25
2022-09-21T19:38:01.800Z,4.03
2022-09-21T19:40:37.603Z,5.60
2022-09-21T19:43:46.112Z,5.38
2022-09-21T19:46:24.614Z,4.72
2022-09-21T19:49:02.712Z,4.80
2022-09-21T19:51:47.210Z,5.30
2022-09-21T19:54:43.110Z,16.95
2022-09-21T19:57:37.155Z,15.45
2022-09-21T20:00:12.534Z,12.38
2022-09-21T20:03:11.356Z,8.05
2022-09-21T20:05:54.583Z,4.53
2022-09-21T20:08:45.884Z,3.20
2022-09-21T20:11:38.468Z,2.88
2022-09-21T20:14:19.556Z,2.85
2022-09-21T20:16:56.820Z,2.40
2022-09-21T20:19:42.996Z,2.92
2022-09-21T20:22:19.575Z,3.05
2022-09-21T20:25:19.046Z,2.20
2022-09-21T20:27:52.216Z,2.78
2022-09-21T20:30:28.284Z,2.60
2022-09-21T20:32:59.907Z,2.42
2022-09-21T20:35:30.261Z,2.47
2022-09-21T20:38:02.262Z,2.13
2022-09-21T20:40:32.582Z,2.20
2022-09-21T20:43:03.518Z,2.45
2022-09-21T20:45:33.103Z,2.50
2022-09-21T20:48:15.554Z,3.35
2022-09-21T20:50:46.118Z,3.65
2022-09-21T20:53:13.338Z,2.85
2022-09-21T20:55:41.343Z,3.55
2022-09-21T20:58:12.696Z,2.70
2022-09-21T21:00:39.684Z,2.75
2022-09-21T21:03:06.417Z,2.30
2022-09-21T21:05:36.273Z,2.80
2022-09-21T21:08:04.560Z,2.72
2022-09-21T21:10:32.728Z,3.28
2022-09-21T21:12:59.704Z,3.15
2022-09-21T21:15:26.467Z,2.20
2022-09-21T21:17:53.515Z,2.38
2022-09-21T21:20:20.819Z,2.42
2022-09-21T21:22:50.376Z,2.07
2022-09-21T21:25:17.776Z,2.07
2022-09-21T21:27:44.650Z,1.97
2022-09-21T21:30:12.011Z,2.00
2022-09-21T21:32:45.100Z,2.07
2022-09-21T21:35:12.918Z,1.90
2022-09-21T21:37:40.666Z,1.70
2022-09-21T21:40:09.020Z,1.80
2022-09-21T21:42:35.976Z,2.17
2022-09-21T21:45:03.944Z,1.65
2022-09-21T21:47:40.606Z,1.70
2022-09-21T21:50:09.635Z,1.67
2022-09-21T21:52:37.282Z,1.43
2022-09-21T21:55:06.366Z,2.30
2022-09-21T21:57:33.199Z,1.48
2022-09-21T22:00:00.116Z,1.35
2022-09-21T22:02:27.944Z,1.52
2022-09-21T22:04:54.688Z,1.50
2022-09-21T22:07:23.682Z,1.27
2022-09-21T22:09:50.375Z,1.30
2022-09-21T22:12:17.097Z,1.07
2022-09-21T22:14:46.309Z,1.37
2022-09-21T22:17:13.465Z,1.20
2022-09-21T22:19:40.301Z,1.20
2022-09-21T22:22:07.036Z,1.20
2022-09-21T22:24:38.309Z,1.43
2022-09-21T22:27:05.118Z,1.40
2022-09-21T22:29:31.884Z,1.57
2022-09-21T22:31:58.643Z,1.53
2022-09-21T22:34:25.473Z,1.50
2022-09-21T22:36:52.308Z,1.10
2022-09-21T22:39:19.016Z,1.20
2022-09-21T22:41:45.689Z,1.60
2022-09-21T22:44:12.420Z,1.20
2022-09-21T22:46:39.921Z,1.33
2022-09-21T22:49:07.624Z,1.30
2022-09-21T22:51:35.534Z,1.00
2022-09-21T22:54:02.415Z,1.30
2022-09-21T22:56:32.930Z,1.17
2022-09-21T22:59:05.169Z,1.20
2022-09-21T23:01:36.929Z,1.10
2022-09-21T23:04:13.094Z,1.03
2022-09-21T23:06:45.353Z,1.07
2022-09-21T23:09:19.682Z,1.43
2022-09-21T23:11:53.051Z,1.20
2022-09-21T23:14:21.236Z,1.23
2022-09-21T23:16:48.273Z,1.10
2022-09-21T23:19:17.713Z,1.33
2022-09-21T23:21:49.446Z,1.40
2022-09-21T23:24:17.596Z,1.33
2022-09-21T23:26:45.515Z,1.30
2022-09-21T23:29:15.504Z,1.53
2022-09-21T23:31:45.341Z,1.10
2022-09-21T23:34:14.301Z,1.27
2022-09-21T23:36:45.086Z,1.30
2022-09-21T23:39:14.774Z,1.23
2022-09-21T23:41:41.979Z,1.13
2022-09-21T23:44:08.736Z,1.00
2022-09-21T23:46:38.367Z,1.17
2022-09-21T23:49:05.734Z,1.40
2022-09-21T23:51:32.752Z,1.20
2022-09-21T23:54:00.307Z,1.30
2022-09-21T23:56:28.835Z,1.20
2022-09-21T23:58:56.334Z,1.03
